sensor_id;sensor_type;location;lat;lon;timestamp;temperature;humidity
1049;DHT22;513;51.444;7.196;2023-02-04T00:01:51;7.00;99.90
1049;DHT22;513;51.444;7.196;2023-02-04T00:04:17;7.00;99.90
1049;DHT22;513;51.444;7.196;2023-02-04T00:06:44;7.00;99.90
1049;DHT22;513;51.444;7.196;2023-02-04T00:09:10;7.00;99.90
1049;DHT22;513;51.444;7.196;2023-02-04T00:11:37;7.00;99.90
1049;DHT22;513;51.444;7.196;2023-02-04T00:14:05;7.00;99.90
1049;DHT22;513;51.444;7.196;2023-02-04T00:16:31;6.90;99.90
1049;DHT22;513;51.444;7.196;2023-02-04T00:18:58;6.80;99.90
1049;DHT22;513;51.444;7.196;2023-02-04T00:21:24;6.90;99.90
1049;DHT22;513;51.444;7.196;2023-02-04T00:23:51;6.90;99.90
1049;DHT22;513;51.444;7.196;2023-02-04T00:26:19;6.80;99.90
1049;DHT22;513;51.444;7.196;2023-02-04T00:28:46;6.90;99.90
1049;DHT22;513;51.444;7.196;2023-02-04T00:31:14;6.90;99.90
1049;DHT22;513;51.444;7.196;2023-02-04T00:33:41;6.90;99.90
1049;DHT22;513;51.444;7.196;2023-02-04T00:36:08;6.80;99.90
1049;DHT22;513;51.444;7.196;2023-02-04T00:38:34;6.90;99.90
1049;DHT22;513;51.444;7.196;2023-02-04T00:41:01;6.70;99.90
1049;DHT22;513;51.444;7.196;2023-02-04T00:43:27;6.80;99.90
1049;DHT22;513;51.444;7.196;2023-02-04T00:45:54;6.60;99.90
1049;DHT22;513;51.444;7.196;2023-02-04T00:48:22;6.60;99.90
1049;DHT22;513;51.444;7.196;2023-02-04T00:50:48;6.50;99.90
1049;DHT22;513;51.444;7.196;2023-02-04T00:53:15;6.70;99.90
1049;DHT22;513;51.444;7.196;2023-02-04T00:55:41;6.70;99.90
1049;DHT22;513;51.444;7.196;2023-02-04T00:58:08;6.70;99.90
1049;DHT22;513;51.444;7.196;2023-02-04T01:00:34;6.60;99.90
1049;DHT22;513;51.444;7.196;2023-02-04T01:03:01;6.70;99.90
1049;DHT22;513;51.444;7.196;2023-02-04T01:05:29;6.70;99.90
1049;DHT22;513;51.444;7.196;2023-02-04T01:07:57;6.70;99.90
1049;DHT22;513;51.444;7.196;2023-02-04T01:10:24;6.70;99.90
1049;DHT22;513;51.444;7.196;2023-02-04T01:12:51;6.80;99.90
1049;DHT22;513;51.444;7.196;2023-02-04T01:15:17;6.80;99.90
1049;DHT22;513;51.444;7.196;2023-02-04T01:17:44;6.90;99.90
1049;DHT22;513;51.444;7.196;2023-02-04T01:20:10;6.90;99.90
1049;DHT22;513;51.444;7.196;2023-02-04T01:22:38;6.80;99.90
1049;DHT22;513;51.444;7.196;2023-02-04T01:25:05;6.80;99.90
1049;DHT22;513;51.444;7.196;2023-02-04T01:27:32;6.80;99.90
1049;DHT22;513;51.444;7.196;2023-02-04T01:29:59;6.90;99.90
1049;DHT22;513;51.444;7.196;2023-02-04T01:32:25;6.90;99.90
1049;DHT22;513;51.444;7.196;2023-02-04T01:34:52;7.00;99.90
1049;DHT22;513;51.444;7.196;2023-02-04T01:37:18;6.90;99.90
1049;DHT22;513;51.444;7.196;2023-02-04T01:39:46;6.90;99.90
1049;DHT22;513;51.444;7.196;2023-02-04T01:42:12;7.00;99.90
1049;DHT22;513;51.444;7.196;2023-02-04T01:44:39;7.10;99.90
1049;DHT22;513;51.444;7.196;2023-02-04T01:47:06;6.90;99.90
1049;DHT22;513;51.444;7.196;2023-02-04T01:49:32;6.80;99.90
1049;DHT22;513;51.444;7.196;2023-02-04T01:51:59;6.80;99.90
1049;DHT22;513;51.444;7.196;2023-02-04T01:54:25;6.80;99.90
1049;DHT22;513;51.444;7.196;2023-02-04T01:56:54;6.90;99.90
1049;DHT22;513;51.444;7.196;2023-02-04T01:59:20;7.00;99.90
1049;DHT22;513;51.444;7.196;2023-02-04T02:01:48;7.10;99.90
1049;DHT22;513;51.444;7.196;2023-02-04T02:04:15;7.10;99.90
1049;DHT22;513;51.444;7.196;2023-02-04T02:06:43;7.00;99.90
1049;DHT22;513;51.444;7.196;2023-02-04T02:09:10;7.00;99.90
1049;DHT22;513;51.444;7.196;2023-02-04T02:11:37;7.00;99.90
1049;DHT22;513;51.444;7.196;2023-02-04T02:14:05;6.90;99.90
1049;DHT22;513;51.444;7.196;2023-02-04T02:16:32;7.00;99.90
1049;DHT22;513;51.444;7.196;2023-02-04T02:18:58;7.00;99.90
1049;DHT22;513;51.444;7.196;2023-02-04T02:21:29;6.80;99.90
1049;DHT22;513;51.444;7.196;2023-02-04T02:23:58;6.80;99.90
1049;DHT22;513;51.444;7.196;2023-02-04T02:26:25;6.90;99.90
1049;DHT22;513;51.444;7.196;2023-02-04T02:28:51;7.00;99.90
1049;DHT22;513;51.444;7.196;2023-02-04T02:31:19;7.00;99.90
1049;DHT22;513;51.444;7.196;2023-02-04T02:33:46;7.10;99.90
1049;DHT22;513;51.444;7.196;2023-02-04T02:36:13;7.00;99.90
1049;DHT22;513;51.444;7.196;2023-02-04T02:38:39;7.00;99.90
1049;DHT22;513;51.444;7.196;2023-02-04T02:41:07;7.10;99.90
1049;DHT22;513;51.444;7.196;2023-02-04T02:43:34;7.10;99.90
1049;DHT22;513;51.444;7.196;2023-02-04T02:46:02;7.10;99.90
1049;DHT22;513;51.444;7.196;2023-02-04T02:48:28;7.20;99.90
1049;DHT22;513;51.444;7.196;2023-02-04T02:50:55;7.10;99.90
1049;DHT22;513;51.444;7.196;2023-02-04T02:53:21;7.10;99.90
1049;DHT22;513;51.444;7.196;2023-02-04T02:55:48;7.10;99.90
1049;DHT22;513;51.444;7.196;2023-02-04T02:58:18;7.20;99.90
1049;DHT22;513;51.444;7.196;2023-02-04T03:00:45;7.20;99.90
1049;DHT22;513;51.444;7.196;2023-02-04T03:03:13;7.10;99.90
1049;DHT22;513;51.444;7.196;2023-02-04T03:05:42;7.10;99.90
1049;DHT22;513;51.444;7.196;2023-02-04T03:08:10;7.20;99.90
1049;DHT22;513;51.444;7.196;2023-02-04T03:10:37;7.20;99.90
1049;DHT22;513;51.444;7.196;2023-02-04T03:13:04;7.20;99.90
1049;DHT22;513;51.444;7.196;2023-02-04T03:15:32;7.20;99.90
1049;DHT22;513;51.444;7.196;2023-02-04T03:17:59;7.10;99.90
1049;DHT22;513;51.444;7.196;2023-02-04T03:20:26;6.90;99.90
1049;DHT22;513;51.444;7.196;2023-02-04T03:22:53;6.90;99.90
1049;DHT22;513;51.444;7.196;2023-02-04T03:25:20;6.70;99.90
1049;DHT22;513;51.444;7.196;2023-02-04T03:27:48;6.90;99.90
1049;DHT22;513;51.444;7.196;2023-02-04T03:30:16;7.00;99.90
1049;DHT22;513;51.444;7.196;2023-02-04T03:32:43;7.00;99.90
1049;DHT22;513;51.444;7.196;2023-02-04T03:35:10;7.10;99.90
1049;DHT22;513;51.444;7.196;2023-02-04T03:37:36;7.20;99.90
1049;DHT22;513;51.444;7.196;2023-02-04T03:40:03;7.20;99.90
1049;DHT22;513;51.444;7.196;2023-02-04T03:42:30;7.20;99.90
1049;DHT22;513;51.444;7.196;2023-02-04T03:44:57;7.10;99.90
1049;DHT22;513;51.444;7.196;2023-02-04T03:47:23;7.00;99.90
1049;DHT22;513;51.444;7.196;2023-02-04T03:49:51;7.10;99.90
1049;DHT22;513;51.444;7.196;2023-02-04T03:52:18;7.10;99.90
1049;DHT22;513;51.444;7.196;2023-02-04T03:54:44;7.10;99.90
1049;DHT22;513;51.444;7.196;2023-02-04T03:57:11;7.10;99.90
1049;DHT22;513;51.444;7.196;2023-02-04T03:59:40;7.00;99.90
1049;DHT22;513;51.444;7.196;2023-02-04T04:02:06;7.10;99.90
1049;DHT22;513;51.444;7.196;2023-02-04T04:04:33;7.10;99.90
1049;DHT22;513;51.444;7.196;2023-02-04T04:07:01;7.10;99.90
1049;DHT22;513;51.444;7.196;2023-02-04T04:09:27;7.10;99.90
1049;DHT22;513;51.444;7.196;2023-02-04T04:11:54;7.10;99.90
1049;DHT22;513;51.444;7.196;2023-02-04T04:14:20;7.00;99.90
1049;DHT22;513;51.444;7.196;2023-02-04T04:16:47;7.10;99.90
1049;DHT22;513;51.444;7.196;2023-02-04T04:19:13;7.00;99.90
1049;DHT22;513;51.444;7.196;2023-02-04T04:21:40;6.90;99.90
1049;DHT22;513;51.444;7.196;2023-02-04T04:24:08;6.90;99.90
1049;DHT22;513;51.444;7.196;2023-02-04T04:26:34;6.80;99.90
1049;DHT22;513;51.444;7.196;2023-02-04T04:29:01;6.80;99.90
1049;DHT22;513;51.444;7.196;2023-02-04T04:31:27;6.90;99.90
1049;DHT22;513;51.444;7.196;2023-02-04T04:33:54;6.80;99.90
1049;DHT22;513;51.444;7.196;2023-02-04T04:36:20;6.80;99.90
1049;DHT22;513;51.444;7.196;2023-02-04T04:38:47;6.80;99.90
1049;DHT22;513;51.444;7.196;2023-02-04T04:41:15;6.90;99.90
1049;DHT22;513;51.444;7.196;2023-02-04T04:43:41;6.90;99.90
1049;DHT22;513;51.444;7.196;2023-02-04T04:46:08;7.00;99.90
1049;DHT22;513;51.444;7.196;2023-02-04T04:48:34;7.10;99.90
1049;DHT22;513;51.444;7.196;2023-02-04T04:51:01;7.10;99.90
1049;DHT22;513;51.444;7.196;2023-02-04T04:53:27;7.20;99.90
1049;DHT22;513;51.444;7.196;2023-02-04T04:55:54;7.00;99.90
1049;DHT22;513;51.444;7.196;2023-02-04T04:58:22;7.10;99.90
1049;DHT22;513;51.444;7.196;2023-02-04T05:00:48;7.20;99.90
1049;DHT22;513;51.444;7.196;2023-02-04T05:03:15;7.20;99.90
1049;DHT22;513;51.444;7.196;2023-02-04T05:05:41;7.10;99.90
1049;DHT22;513;51.444;7.196;2023-02-04T05:08:08;7.10;99.90
1049;DHT22;513;51.444;7.196;2023-02-04T05:10:38;7.10;99.90
1049;DHT22;513;51.444;7.196;2023-02-04T05:13:04;7.10;99.90
1049;DHT22;513;51.444;7.196;2023-02-04T05:15:32;7.10;99.90
1049;DHT22;513;51.444;7.196;2023-02-04T05:17:59;7.10;99.90
1049;DHT22;513;51.444;7.196;2023-02-04T05:20:25;6.90;99.90
1049;DHT22;513;51.444;7.196;2023-02-04T05:22:52;6.90;99.90
1049;DHT22;513;51.444;7.196;2023-02-04T05:25:20;7.00;99.90
1049;DHT22;513;51.444;7.196;2023-02-04T05:27:47;7.10;99.90
1049;DHT22;513;51.444;7.196;2023-02-04T05:30:13;7.10;99.90
1049;DHT22;513;51.444;7.196;2023-02-04T05:32:41;7.00;99.90
1049;DHT22;513;51.444;7.196;2023-02-04T05:35:08;7.10;99.90
1049;DHT22;513;51.444;7.196;2023-02-04T05:37:34;7.10;99.90
1049;DHT22;513;51.444;7.196;2023-02-04T05:40:02;7.10;99.90
1049;DHT22;513;51.444;7.196;2023-02-04T05:42:29;7.10;99.90
1049;DHT22;513;51.444;7.196;2023-02-04T05:44:56;7.20;99.90
1049;DHT22;513;51.444;7.196;2023-02-04T05:47:22;7.20;99.90
1049;DHT22;513;51.444;7.196;2023-02-04T05:49:50;7.20;99.90
1049;DHT22;513;51.444;7.196;2023-02-04T05:52:17;7.20;99.90
1049;DHT22;513;51.444;7.196;2023-02-04T05:54:43;7.30;99.90
1049;DHT22;513;51.444;7.196;2023-02-04T05:57:10;7.30;99.90
1049;DHT22;513;51.444;7.196;2023-02-04T05:59:36;7.30;99.90
1049;DHT22;513;51.444;7.196;2023-02-04T06:02:03;7.40;99.90
1049;DHT22;513;51.444;7.196;2023-02-04T06:04:29;7.30;99.90
1049;DHT22;513;51.444;7.196;2023-02-04T06:06:57;7.30;99.90
1049;DHT22;513;51.444;7.196;2023-02-04T06:09:24;7.30;99.90
1049;DHT22;513;51.444;7.196;2023-02-04T06:11:50;7.40;99.90
1049;DHT22;513;51.444;7.196;2023-02-04T06:14:17;7.30;99.90
1049;DHT22;513;51.444;7.196;2023-02-04T06:16:43;7.30;99.90
1049;DHT22;513;51.444;7.196;2023-02-04T06:19:10;7.30;99.90
1049;DHT22;513;51.444;7.196;2023-02-04T06:21:37;7.30;99.90
1049;DHT22;513;51.444;7.196;2023-02-04T06:24:06;7.20;99.90
1049;DHT22;513;51.444;7.196;2023-02-04T06:26:32;7.20;99.90
1049;DHT22;513;51.444;7.196;2023-02-04T06:28:59;7.20;99.90
1049;DHT22;513;51.444;7.196;2023-02-04T06:31:25;7.10;99.90
1049;DHT22;513;51.444;7.196;2023-02-04T06:33:52;7.00;99.90
1049;DHT22;513;51.444;7.196;2023-02-04T06:36:18;7.10;99.90
1049;DHT22;513;51.444;7.196;2023-02-04T06:38:45;7.20;99.90
1049;DHT22;513;51.444;7.196;2023-02-04T06:41:13;7.20;99.90
1049;DHT22;513;51.444;7.196;2023-02-04T06:43:39;7.20;99.90
1049;DHT22;513;51.444;7.196;2023-02-04T06:46:06;7.10;99.90
1049;DHT22;513;51.444;7.196;2023-02-04T06:48:32;7.00;99.90
1049;DHT22;513;51.444;7.196;2023-02-04T06:50:59;7.10;99.90
1049;DHT22;513;51.444;7.196;2023-02-04T06:53:25;7.20;99.90
1049;DHT22;513;51.444;7.196;2023-02-04T06:55:52;7.20;99.90
1049;DHT22;513;51.444;7.196;2023-02-04T06:58:20;7.10;99.90
1049;DHT22;513;51.444;7.196;2023-02-04T07:00:46;7.20;99.90
1049;DHT22;513;51.444;7.196;2023-02-04T07:03:13;7.20;99.90
1049;DHT22;513;51.444;7.196;2023-02-04T07:05:39;7.20;99.90
1049;DHT22;513;51.444;7.196;2023-02-04T07:08:06;7.20;99.90
1049;DHT22;513;51.444;7.196;2023-02-04T07:10:32;7.30;99.90
1049;DHT22;513;51.444;7.196;2023-02-04T07:12:59;7.40;99.90
1049;DHT22;513;51.444;7.196;2023-02-04T07:15:27;7.40;99.90
1049;DHT22;513;51.444;7.196;2023-02-04T07:17:53;7.40;99.90
1049;DHT22;513;51.444;7.196;2023-02-04T07:20:20;7.50;99.90
1049;DHT22;513;51.444;7.196;2023-02-04T07:22:46;7.50;99.90
1049;DHT22;513;51.444;7.196;2023-02-04T07:25:13;7.50;99.90
1049;DHT22;513;51.444;7.196;2023-02-04T07:27:42;7.50;99.90
1049;DHT22;513;51.444;7.196;2023-02-04T07:30:09;7.60;99.90
1049;DHT22;513;51.444;7.196;2023-02-04T07:32:37;7.50;99.90
1049;DHT22;513;51.444;7.196;2023-02-04T07:35:04;7.60;99.90
1049;DHT22;513;51.444;7.196;2023-02-04T07:37:31;7.60;99.90
1049;DHT22;513;51.444;7.196;2023-02-04T07:39:57;7.60;99.90
1049;DHT22;513;51.444;7.196;2023-02-04T07:42:24;7.50;99.90
1049;DHT22;513;51.444;7.196;2023-02-04T07:44:50;7.50;99.90
1049;DHT22;513;51.444;7.196;2023-02-04T07:47:17;7.50;99.90
1049;DHT22;513;51.444;7.196;2023-02-04T07:49:44;7.50;99.90
1049;DHT22;513;51.444;7.196;2023-02-04T07:52:11;7.50;99.90
1049;DHT22;513;51.444;7.196;2023-02-04T07:54:37;7.60;99.90
1049;DHT22;513;51.444;7.196;2023-02-04T07:57:04;7.50;99.90
1049;DHT22;513;51.444;7.196;2023-02-04T07:59:30;7.50;99.90
1049;DHT22;513;51.444;7.196;2023-02-04T08:01:57;7.50;99.90
1049;DHT22;513;51.444;7.196;2023-02-04T08:04:24;7.50;99.90
1049;DHT22;513;51.444;7.196;2023-02-04T08:06:51;7.50;99.90
1049;DHT22;513;51.444;7.196;2023-02-04T08:09:18;7.50;99.90
1049;DHT22;513;51.444;7.196;2023-02-04T08:11:45;7.40;99.90
1049;DHT22;513;51.444;7.196;2023-02-04T08:14:11;7.40;99.90
1049;DHT22;513;51.444;7.196;2023-02-04T08:16:38;7.60;99.90
1049;DHT22;513;51.444;7.196;2023-02-04T08:19:04;7.60;99.90
1049;DHT22;513;51.444;7.196;2023-02-04T08:21:31;7.70;99.90
1049;DHT22;513;51.444;7.196;2023-02-04T08:23:59;7.70;99.90
1049;DHT22;513;51.444;7.196;2023-02-04T08:26:25;7.70;99.90
1049;DHT22;513;51.444;7.196;2023-02-04T08:28:52;7.70;99.90
1049;DHT22;513;51.444;7.196;2023-02-04T08:31:18;7.70;99.90
1049;DHT22;513;51.444;7.196;2023-02-04T08:33:45;7.60;99.90
1049;DHT22;513;51.444;7.196;2023-02-04T08:36:11;7.50;99.90
1049;DHT22;513;51.444;7.196;2023-02-04T08:38:38;7.50;99.90
1049;DHT22;513;51.444;7.196;2023-02-04T08:41:07;7.40;99.90
1049;DHT22;513;51.444;7.196;2023-02-04T08:43:33;7.50;99.90
1049;DHT22;513;51.444;7.196;2023-02-04T08:46:01;7.70;99.90
1049;DHT22;513;51.444;7.196;2023-02-04T08:48:27;7.70;99.90
1049;DHT22;513;51.444;7.196;2023-02-04T08:50:54;7.80;99.90
1049;DHT22;513;51.444;7.196;2023-02-04T08:53:20;7.80;99.90
1049;DHT22;513;51.444;7.196;2023-02-04T08:55:47;7.70;99.90
1049;DHT22;513;51.444;7.196;2023-02-04T08:58:15;7.50;99.90
1049;DHT22;513;51.444;7.196;2023-02-04T09:00:41;7.50;99.90
1049;DHT22;513;51.444;7.196;2023-02-04T09:03:08;7.60;99.90
1049;DHT22;513;51.444;7.196;2023-02-04T09:05:34;7.60;99.90
1049;DHT22;513;51.444;7.196;2023-02-04T09:08:01;7.50;99.90
1049;DHT22;513;51.444;7.196;2023-02-04T09:10:27;7.60;99.90
1049;DHT22;513;51.444;7.196;2023-02-04T09:12:54;7.80;99.90
1049;DHT22;513;51.444;7.196;2023-02-04T09:15:22;7.80;99.90
1049;DHT22;513;51.444;7.196;2023-02-04T09:17:49;7.80;99.90
1049;DHT22;513;51.444;7.196;2023-02-04T09:20:18;7.90;99.90
1049;DHT22;513;51.444;7.196;2023-02-04T09:22:44;7.80;99.90
1049;DHT22;513;51.444;7.196;2023-02-04T09:25:12;7.80;99.90
1049;DHT22;513;51.444;7.196;2023-02-04T09:27:38;7.60;99.90
1049;DHT22;513;51.444;7.196;2023-02-04T09:30:05;7.50;99.90
1049;DHT22;513;51.444;7.196;2023-02-04T09:32:33;7.70;99.90
1049;DHT22;513;51.444;7.196;2023-02-04T09:35:00;7.90;99.90
1049;DHT22;513;51.444;7.196;2023-02-04T09:37:26;8.10;99.90
1049;DHT22;513;51.444;7.196;2023-02-04T09:39:53;8.20;99.90
1049;DHT22;513;51.444;7.196;2023-02-04T09:42:20;8.00;99.90
1049;DHT22;513;51.444;7.196;2023-02-04T09:44:48;8.10;99.90
1049;DHT22;513;51.444;7.196;2023-02-04T09:47:14;7.80;99.90
1049;DHT22;513;51.444;7.196;2023-02-04T09:49:44;7.70;99.90
1049;DHT22;513;51.444;7.196;2023-02-04T09:52:11;7.80;99.90
1049;DHT22;513;51.444;7.196;2023-02-04T09:54:38;7.90;99.90
1049;DHT22;513;51.444;7.196;2023-02-04T09:57:07;8.10;99.90
1049;DHT22;513;51.444;7.196;2023-02-04T09:59:36;8.30;99.90
1049;DHT22;513;51.444;7.196;2023-02-04T10:02:03;8.30;99.90
1049;DHT22;513;51.444;7.196;2023-02-04T10:04:31;8.10;99.90
1049;DHT22;513;51.444;7.196;2023-02-04T10:06:59;8.20;99.90
1049;DHT22;513;51.444;7.196;2023-02-04T10:09:25;8.30;99.90
1049;DHT22;513;51.444;7.196;2023-02-04T10:11:52;8.10;99.90
1049;DHT22;513;51.444;7.196;2023-02-04T10:14:19;8.20;99.90
1049;DHT22;513;51.444;7.196;2023-02-04T10:16:47;8.20;99.90
1049;DHT22;513;51.444;7.196;2023-02-04T10:19:16;8.30;99.90
1049;DHT22;513;51.444;7.196;2023-02-04T10:21:43;8.30;99.90
1049;DHT22;513;51.444;7.196;2023-02-04T10:24:11;8.10;99.90
1049;DHT22;513;51.444;7.196;2023-02-04T10:26:39;8.00;99.90
1049;DHT22;513;51.444;7.196;2023-02-04T10:29:06;7.90;99.90
1049;DHT22;513;51.444;7.196;2023-02-04T10:31:34;8.10;99.90
1049;DHT22;513;51.444;7.196;2023-02-04T10:34:02;8.20;99.90
1049;DHT22;513;51.444;7.196;2023-02-04T10:36:29;8.20;99.90
1049;DHT22;513;51.444;7.196;2023-02-04T10:38:59;8.20;99.90
1049;DHT22;513;51.444;7.196;2023-02-04T10:41:27;8.40;99.90
1049;DHT22;513;51.444;7.196;2023-02-04T10:43:54;8.60;99.90
1049;DHT22;513;51.444;7.196;2023-02-04T10:46:20;8.70;99.90
1049;DHT22;513;51.444;7.196;2023-02-04T10:48:47;8.70;99.90
1049;DHT22;513;51.444;7.196;2023-02-04T10:51:14;8.30;99.90
1049;DHT22;513;51.444;7.196;2023-02-04T10:53:40;8.00;99.90
1049;DHT22;513;51.444;7.196;2023-02-04T10:56:24;7.90;99.90
1049;DHT22;513;51.444;7.196;2023-02-04T10:58:52;8.10;99.90
1049;DHT22;513;51.444;7.196;2023-02-04T11:01:18;8.40;99.90
1049;DHT22;513;51.444;7.196;2023-02-04T11:03:45;8.60;99.90
1049;DHT22;513;51.444;7.196;2023-02-04T11:06:14;8.60;99.90
1049;DHT22;513;51.444;7.196;2023-02-04T11:08:43;8.30;99.90
1049;DHT22;513;51.444;7.196;2023-02-04T11:11:13;8.40;99.90
1049;DHT22;513;51.444;7.196;2023-02-04T11:13:41;8.60;99.90
1049;DHT22;513;51.444;7.196;2023-02-04T11:16:11;8.70;99.90
1049;DHT22;513;51.444;7.196;2023-02-04T11:18:45;8.90;99.90
1049;DHT22;513;51.444;7.196;2023-02-04T11:21:21;9.10;98.50
1049;DHT22;513;51.444;7.196;2023-02-04T11:23:48;9.10;74.90
1049;DHT22;513;51.444;7.196;2023-02-04T11:26:15;9.20;80.30
1049;DHT22;513;51.444;7.196;2023-02-04T11:28:44;9.30;80.50
1049;DHT22;513;51.444;7.196;2023-02-04T11:31:14;9.50;79.10
1049;DHT22;513;51.444;7.196;2023-02-04T11:34:01;9.60;71.00
1049;DHT22;513;51.444;7.196;2023-02-04T11:36:28;9.30;40.50
1049;DHT22;513;51.444;7.196;2023-02-04T11:39:05;9.20;48.10
1049;DHT22;513;51.444;7.196;2023-02-04T11:41:32;9.20;55.80
1049;DHT22;513;51.444;7.196;2023-02-04T11:43:58;9.30;52.60
1049;DHT22;513;51.444;7.196;2023-02-04T11:46:26;9.50;90.30
1049;DHT22;513;51.444;7.196;2023-02-04T11:48:53;9.70;59.90
1049;DHT22;513;51.444;7.196;2023-02-04T11:51:22;10.00;38.10
1049;DHT22;513;51.444;7.196;2023-02-04T11:53:51;10.20;41.60
1049;DHT22;513;51.444;7.196;2023-02-04T11:56:18;10.40;1.00
1049;DHT22;513;51.444;7.196;2023-02-04T11:58:45;10.40;1.00
1049;DHT22;513;51.444;7.196;2023-02-04T12:01:16;10.30;1.00
1049;DHT22;513;51.444;7.196;2023-02-04T12:03:46;10.20;1.00
1049;DHT22;513;51.444;7.196;2023-02-04T12:06:19;10.10;1.00
1049;DHT22;513;51.444;7.196;2023-02-04T12:08:45;10.00;1.00
1049;DHT22;513;51.444;7.196;2023-02-04T12:11:24;9.80;1.00
1049;DHT22;513;51.444;7.196;2023-02-04T12:13:52;9.80;2.50
1049;DHT22;513;51.444;7.196;2023-02-04T12:16:19;9.80;1.00
1049;DHT22;513;51.444;7.196;2023-02-04T12:18:47;9.60;9.10
1049;DHT22;513;51.444;7.196;2023-02-04T12:21:14;9.70;1.00
1049;DHT22;513;51.444;7.196;2023-02-04T12:23:41;9.70;1.00
1049;DHT22;513;51.444;7.196;2023-02-04T12:26:07;9.50;10.00
1049;DHT22;513;51.444;7.196;2023-02-04T12:28:34;9.60;16.50
1049;DHT22;513;51.444;7.196;2023-02-04T12:31:01;9.70;15.60
1049;DHT22;513;51.444;7.196;2023-02-04T12:33:27;9.70;1.00
1049;DHT22;513;51.444;7.196;2023-02-04T12:35:55;9.70;1.00
1049;DHT22;513;51.444;7.196;2023-02-04T12:38:21;9.50;1.00
1049;DHT22;513;51.444;7.196;2023-02-04T12:40:48;9.20;2.00
1049;DHT22;513;51.444;7.196;2023-02-04T12:43:15;9.20;13.10
1049;DHT22;513;51.444;7.196;2023-02-04T12:45:41;9.30;23.00
1049;DHT22;513;51.444;7.196;2023-02-04T12:48:10;9.20;22.20
1049;DHT22;513;51.444;7.196;2023-02-04T12:50:37;8.90;49.40
1049;DHT22;513;51.444;7.196;2023-02-04T12:53:05;9.10;48.80
1049;DHT22;513;51.444;7.196;2023-02-04T12:55:32;9.20;36.40
1049;DHT22;513;51.444;7.196;2023-02-04T12:57:58;9.30;27.30
1049;DHT22;513;51.444;7.196;2023-02-04T13:00:25;9.20;33.80
1049;DHT22;513;51.444;7.196;2023-02-04T13:02:52;9.20;30.70
1049;DHT22;513;51.444;7.196;2023-02-04T13:05:19;9.30;28.00
1049;DHT22;513;51.444;7.196;2023-02-04T13:07:46;9.30;25.00
1049;DHT22;513;51.444;7.196;2023-02-04T13:10:14;9.20;30.40
1049;DHT22;513;51.444;7.196;2023-02-04T13:12:41;9.20;24.00
1049;DHT22;513;51.444;7.196;2023-02-04T13:15:08;9.30;27.20
1049;DHT22;513;51.444;7.196;2023-02-04T13:17:35;9.30;5.70
1049;DHT22;513;51.444;7.196;2023-02-04T13:20:02;9.20;8.10
1049;DHT22;513;51.444;7.196;2023-02-04T13:22:29;9.40;3.20
1049;DHT22;513;51.444;7.196;2023-02-04T13:24:56;9.50;1.00
1049;DHT22;513;51.444;7.196;2023-02-04T13:27:24;9.60;1.00
1049;DHT22;513;51.444;7.196;2023-02-04T13:29:52;9.70;1.00
1049;DHT22;513;51.444;7.196;2023-02-04T13:32:18;9.80;1.00
1049;DHT22;513;51.444;7.196;2023-02-04T13:34:45;9.90;1.00
1049;DHT22;513;51.444;7.196;2023-02-04T13:37:11;9.90;1.00
1049;DHT22;513;51.444;7.196;2023-02-04T13:39:38;10.00;1.00
1049;DHT22;513;51.444;7.196;2023-02-04T13:42:04;10.10;1.00
1049;DHT22;513;51.444;7.196;2023-02-04T13:44:32;10.10;1.00
1049;DHT22;513;51.444;7.196;2023-02-04T13:46:59;10.10;1.00
1049;DHT22;513;51.444;7.196;2023-02-04T13:49:25;10.10;1.00
1049;DHT22;513;51.444;7.196;2023-02-04T13:51:52;10.00;1.00
1049;DHT22;513;51.444;7.196;2023-02-04T13:54:18;9.50;1.00
1049;DHT22;513;51.444;7.196;2023-02-04T13:56:45;9.60;1.00
1049;DHT22;513;51.444;7.196;2023-02-04T13:59:11;9.40;1.00
1049;DHT22;513;51.444;7.196;2023-02-04T14:01:39;9.50;1.00
1049;DHT22;513;51.444;7.196;2023-02-04T14:04:06;9.60;1.00
1049;DHT22;513;51.444;7.196;2023-02-04T14:06:32;9.50;1.00
1049;DHT22;513;51.444;7.196;2023-02-04T14:09:02;9.60;1.00
1049;DHT22;513;51.444;7.196;2023-02-04T14:11:29;9.70;1.00
1049;DHT22;513;51.444;7.196;2023-02-04T14:13:56;9.70;1.00
1049;DHT22;513;51.444;7.196;2023-02-04T14:16:22;9.70;1.00
1049;DHT22;513;51.444;7.196;2023-02-04T14:18:50;9.70;1.00
1049;DHT22;513;51.444;7.196;2023-02-04T14:21:17;9.70;1.00
1049;DHT22;513;51.444;7.196;2023-02-04T14:23:43;9.50;1.00
1049;DHT22;513;51.444;7.196;2023-02-04T14:26:10;9.30;1.00
1049;DHT22;513;51.444;7.196;2023-02-04T14:28:36;9.40;1.00
1049;DHT22;513;51.444;7.196;2023-02-04T14:31:03;9.50;1.00
1049;DHT22;513;51.444;7.196;2023-02-04T14:33:30;9.50;1.00
1049;DHT22;513;51.444;7.196;2023-02-04T14:35:58;9.50;1.00
1049;DHT22;513;51.444;7.196;2023-02-04T14:38:24;9.60;1.00
1049;DHT22;513;51.444;7.196;2023-02-04T14:40:55;9.60;1.00
1049;DHT22;513;51.444;7.196;2023-02-04T14:43:22;9.40;1.00
1049;DHT22;513;51.444;7.196;2023-02-04T14:45:48;9.20;1.00
1049;DHT22;513;51.444;7.196;2023-02-04T14:48:15;9.20;1.00
1049;DHT22;513;51.444;7.196;2023-02-04T14:50:41;9.20;1.00
1049;DHT22;513;51.444;7.196;2023-02-04T14:53:09;9.30;1.00
1049;DHT22;513;51.444;7.196;2023-02-04T14:55:36;9.40;1.00
1049;DHT22;513;51.444;7.196;2023-02-04T14:58:02;9.40;1.00
1049;DHT22;513;51.444;7.196;2023-02-04T15:00:29;9.30;1.00
1049;DHT22;513;51.444;7.196;2023-02-04T15:02:55;9.20;1.00
1049;DHT22;513;51.444;7.196;2023-02-04T15:05:22;9.10;1.00
1049;DHT22;513;51.444;7.196;2023-02-04T15:07:48;9.00;1.00
1049;DHT22;513;51.444;7.196;2023-02-04T15:10:16;9.00;1.00
1049;DHT22;513;51.444;7.196;2023-02-04T15:12:43;9.10;1.00
1049;DHT22;513;51.444;7.196;2023-02-04T15:15:09;9.10;1.00
1049;DHT22;513;51.444;7.196;2023-02-04T15:17:36;9.10;1.00
1049;DHT22;513;51.444;7.196;2023-02-04T15:20:03;9.20;1.00
1049;DHT22;513;51.444;7.196;2023-02-04T15:22:30;9.20;1.00
1049;DHT22;513;51.444;7.196;2023-02-04T15:24:56;9.10;1.00
1049;DHT22;513;51.444;7.196;2023-02-04T15:27:24;9.10;1.00
1049;DHT22;513;51.444;7.196;2023-02-04T15:29:51;9.20;1.00
1049;DHT22;513;51.444;7.196;2023-02-04T15:32:17;9.10;1.00
1049;DHT22;513;51.444;7.196;2023-02-04T15:34:44;9.00;1.00
1049;DHT22;513;51.444;7.196;2023-02-04T15:37:10;9.00;1.00
1049;DHT22;513;51.444;7.196;2023-02-04T15:39:37;9.10;1.00
1049;DHT22;513;51.444;7.196;2023-02-04T15:42:04;9.10;1.00
1049;DHT22;513;51.444;7.196;2023-02-04T15:44:32;9.10;1.00
1049;DHT22;513;51.444;7.196;2023-02-04T15:46:58;9.10;1.00
1049;DHT22;513;51.444;7.196;2023-02-04T15:49:25;9.10;1.00
1049;DHT22;513;51.444;7.196;2023-02-04T15:51:51;9.10;1.00
1049;DHT22;513;51.444;7.196;2023-02-04T15:54:18;9.00;1.00
1049;DHT22;513;51.444;7.196;2023-02-04T15:56:45;8.90;1.00
1049;DHT22;513;51.444;7.196;2023-02-04T15:59:11;8.90;1.00
1049;DHT22;513;51.444;7.196;2023-02-04T16:01:41;8.90;1.00
1049;DHT22;513;51.444;7.196;2023-02-04T16:04:07;8.90;1.00
1049;DHT22;513;51.444;7.196;2023-02-04T16:06:34;8.80;1.00
1049;DHT22;513;51.444;7.196;2023-02-04T16:09:00;8.70;1.00
1049;DHT22;513;51.444;7.196;2023-02-04T16:11:27;8.70;1.00
1049;DHT22;513;51.444;7.196;2023-02-04T16:13:53;8.60;1.00
1049;DHT22;513;51.444;7.196;2023-02-04T16:16:20;8.60;1.00
1049;DHT22;513;51.444;7.196;2023-02-04T16:18:48;8.60;1.00
1049;DHT22;513;51.444;7.196;2023-02-04T16:21:14;8.60;1.00
1049;DHT22;513;51.444;7.196;2023-02-04T16:23:41;8.50;1.00
1049;DHT22;513;51.444;7.196;2023-02-04T16:26:07;8.50;1.70
1049;DHT22;513;51.444;7.196;2023-02-04T16:28:34;8.40;4.70
1049;DHT22;513;51.444;7.196;2023-02-04T16:31:01;8.40;7.90
1049;DHT22;513;51.444;7.196;2023-02-04T16:33:27;8.30;12.20
1049;DHT22;513;51.444;7.196;2023-02-04T16:35:55;8.20;16.00